createdAt,value
2022-11-14T00:01:41.026Z,28.71
2022-11-14T00:04:12.197Z,28.72
2022-11-14T00:06:42.779Z,28.72
2022-11-14T00:09:13.334Z,28.73
2022-11-14T00:11:43.983Z,28.72
2022-11-14T00:14:15.319Z,28.72
2022-11-14T00:16:47.961Z,28.71
2022-11-14T00:19:18.276Z,28.72
2022-11-14T00:21:48.893Z,28.72
2022-11-14T00:24:18.978Z,28.72
2022-11-14T00:26:49.621Z,28.73
2022-11-14T00:29:20.232Z,28.70
2022-11-14T00:31:53.340Z,28.70
2022-11-14T00:34:23.679Z,28.67
2022-11-14T00:36:53.487Z,28.67
2022-11-14T00:39:24.405Z,28.67
2022-11-14T00:41:55.154Z,28.64
2022-11-14T00:44:25.012Z,28.63
2022-11-14T00:46:57.733Z,28.62
2022-11-14T00:49:28.644Z,28.60
2022-11-14T00:51:58.539Z,28.58
2022-11-14T00:54:28.276Z,28.57
2022-11-14T00:56:58.205Z,28.55
2022-11-14T00:59:28.282Z,28.52
2022-11-14T01:02:00.850Z,28.50
2022-11-14T01:04:31.963Z,28.47
2022-11-14T01:07:02.574Z,28.46
2022-11-14T01:09:33.139Z,28.44
2022-11-14T01:12:03.806Z,28.43
2022-11-14T01:14:33.995Z,28.44
2022-11-14T01:17:06.555Z,28.43
2022-11-14T01:19:37.090Z,28.42
2022-11-14T01:22:07.145Z,28.43
2022-11-14T01:24:38.484Z,28.44
2022-11-14T01:27:08.949Z,28.44
2022-11-14T01:29:39.996Z,28.44
2022-11-14T01:32:12.729Z,28.45
2022-11-14T01:34:43.378Z,28.44
2022-11-14T01:37:14.001Z,28.43
2022-11-14T01:39:43.742Z,28.42
2022-11-14T01:42:14.439Z,28.41
2022-11-14T01:44:55.462Z,28.39
2022-11-14T01:47:32.945Z,28.35
2022-11-14T01:50:06.779Z,28.32
2022-11-14T01:52:42.193Z,28.31
2022-11-14T01:55:13.722Z,28.27
2022-11-14T01:57:50.689Z,28.25
2022-11-14T02:00:21.475Z,28.22
2022-11-14T02:03:01.343Z,28.22
2022-11-14T02:05:33.222Z,28.19
2022-11-14T02:08:03.289Z,28.18
2022-11-14T02:10:34.139Z,28.18
2022-11-14T02:13:04.683Z,28.17
2022-11-14T02:15:36.008Z,28.18
2022-11-14T02:18:09.277Z,28.16
2022-11-14T02:20:44.127Z,28.16
2022-11-14T02:23:17.795Z,28.13
2022-11-14T02:25:48.250Z,28.11
2022-11-14T02:28:18.048Z,28.07
2022-11-14T02:30:48.734Z,28.06
2022-11-14T02:33:22.423Z,28.05
2022-11-14T02:35:54.109Z,28.04
2022-11-14T02:38:25.004Z,28.02
2022-11-14T02:40:55.907Z,28.02
2022-11-14T02:43:26.561Z,28.02
2022-11-14T02:46:01.394Z,28.04
2022-11-14T02:48:35.096Z,28.05
2022-11-14T02:51:08.548Z,28.07
2022-11-14T02:53:39.421Z,28.09
2022-11-14T02:56:10.621Z,28.08
2022-11-14T02:58:40.618Z,28.09
2022-11-14T03:01:26.225Z,28.07
2022-11-14T03:03:57.580Z,28.05
2022-11-14T03:06:30.056Z,28.03
2022-11-14T03:09:00.849Z,28.01
2022-11-14T03:11:31.625Z,28.00
2022-11-14T03:14:03.677Z,28.00
2022-11-14T03:16:33.753Z,27.98
2022-11-14T03:19:04.489Z,27.96
2022-11-14T03:21:36.568Z,27.94
2022-11-14T03:24:07.970Z,27.91
2022-11-14T03:26:38.217Z,27.90
2022-11-14T03:29:12.971Z,27.90
2022-11-14T03:31:44.237Z,27.89
2022-11-14T03:34:15.346Z,27.89
2022-11-14T03:36:48.273Z,27.90
2022-11-14T03:39:19.172Z,27.90
2022-11-14T03:41:49.743Z,27.87
2022-11-14T03:44:20.354Z,27.84
2022-11-14T03:46:50.096Z,27.80
2022-11-14T03:49:19.844Z,27.76
2022-11-14T03:51:51.217Z,27.77
2022-11-14T03:54:21.777Z,27.78
2022-11-14T03:56:52.362Z,27.80
2022-11-14T03:59:23.156Z,27.81
2022-11-14T04:01:53.250Z,27.82
2022-11-14T04:04:23.779Z,27.85
2022-11-14T04:06:56.124Z,27.87
2022-11-14T04:09:26.861Z,27.86
2022-11-14T04:11:57.549Z,27.87
2022-11-14T04:14:27.665Z,27.88
2022-11-14T04:16:57.515Z,27.90
2022-11-14T04:19:28.424Z,27.90
2022-11-14T04:22:01.074Z,27.91
2022-11-14T04:24:31.825Z,27.92
2022-11-14T04:27:02.801Z,27.91
2022-11-14T04:29:32.906Z,27.92
2022-11-14T04:32:03.827Z,27.92
2022-11-14T04:34:34.295Z,27.93
2022-11-14T04:37:06.853Z,27.94
2022-11-14T04:39:37.105Z,27.95
2022-11-14T04:42:07.809Z,27.96
2022-11-14T04:44:38.507Z,27.95
2022-11-14T04:47:08.325Z,27.94
2022-11-14T04:49:39.354Z,27.97
2022-11-14T04:52:12.289Z,28.01
2022-11-14T04:54:43.082Z,28.05
2022-11-14T04:57:12.706Z,28.09
2022-11-14T04:59:43.123Z,28.14
2022-11-14T05:02:13.758Z,28.19
2022-11-14T05:04:44.855Z,28.25
2022-11-14T05:07:18.047Z,28.30
2022-11-14T05:09:48.785Z,28.36
2022-11-14T05:12:18.821Z,28.42
2022-11-14T05:14:49.471Z,28.50
2022-11-14T05:17:20.525Z,28.56
2022-11-14T05:19:51.033Z,28.61
2022-11-14T05:22:22.682Z,28.66
2022-11-14T05:24:53.118Z,28.74
2022-11-14T05:27:23.365Z,28.82
2022-11-14T05:29:53.470Z,28.94
2022-11-14T05:32:23.759Z,29.05
2022-11-14T05:34:54.469Z,29.18
2022-11-14T05:37:27.298Z,29.31
2022-11-14T05:39:57.856Z,29.42
2022-11-14T05:42:29.804Z,29.55
2022-11-14T05:45:00.305Z,29.70
2022-11-14T05:47:30.888Z,29.85
2022-11-14T05:50:01.600Z,30.01
2022-11-14T05:52:34.532Z,30.14
2022-11-14T05:55:05.033Z,30.26
2022-11-14T05:57:36.275Z,30.39
2022-11-14T06:00:08.145Z,30.51
2022-11-14T06:02:38.510Z,30.64
2022-11-14T06:05:09.702Z,30.78
2022-11-14T06:07:42.325Z,30.94
2022-11-14T06:10:14.280Z,31.05
2022-11-14T06:12:44.449Z,31.17
2022-11-14T06:15:14.697Z,31.31
2022-11-14T06:17:45.337Z,31.43
2022-11-14T06:20:16.275Z,31.54
2022-11-14T06:22:48.296Z,31.64
2022-11-14T06:25:19.190Z,31.74
2022-11-14T06:27:49.745Z,31.85
2022-11-14T06:30:20.272Z,31.97
2022-11-14T06:32:51.066Z,32.09
2022-11-14T06:35:21.405Z,32.20
2022-11-14T06:38:01.134Z,32.32
2022-11-14T06:40:31.734Z,32.42
2022-11-14T06:43:01.890Z,32.56
2022-11-14T06:45:32.680Z,32.67
2022-11-14T06:48:03.794Z,32.76
2022-11-14T06:50:34.516Z,32.85
2022-11-14T06:53:07.318Z,32.89
2022-11-14T06:55:37.928Z,32.91
2022-11-14T06:58:08.634Z,32.95
2022-11-14T07:00:38.686Z,32.98
2022-11-14T07:03:13.642Z,33.01
2022-11-14T07:05:43.582Z,33.04
2022-11-14T07:08:20.861Z,33.08
2022-11-14T07:10:51.897Z,33.11
2022-11-14T07:13:22.085Z,33.14
2022-11-14T07:15:56.310Z,33.20
2022-11-14T07:18:27.602Z,33.26
2022-11-14T07:21:03.376Z,33.33
2022-11-14T07:23:37.055Z,33.35
2022-11-14T07:26:10.681Z,33.41
2022-11-14T07:28:45.930Z,33.49
2022-11-14T07:31:21.447Z,33.57
2022-11-14T07:33:52.069Z,33.66
2022-11-14T07:36:23.165Z,33.76
2022-11-14T07:38:55.285Z,33.88
2022-11-14T07:41:26.263Z,33.96
2022-11-14T07:43:56.349Z,34.03
2022-11-14T07:46:27.375Z,34.09
2022-11-14T07:48:58.727Z,34.17
2022-11-14T07:51:28.904Z,34.27
2022-11-14T07:54:01.142Z,34.37
2022-11-14T07:56:31.934Z,34.45
2022-11-14T07:59:03.019Z,34.55
2022-11-14T08:01:34.033Z,34.60
2022-11-14T08:04:05.196Z,34.66
2022-11-14T08:06:35.780Z,34.72
2022-11-14T08:09:08.143Z,34.79
2022-11-14T08:11:49.801Z,34.86
2022-11-14T08:14:20.616Z,34.91
2022-11-14T08:16:52.706Z,34.96
2022-11-14T08:19:23.595Z,35.01
2022-11-14T08:21:54.232Z,35.02
2022-11-14T08:24:27.045Z,35.02
2022-11-14T08:26:57.783Z,35.00
2022-11-14T08:29:28.640Z,34.99
2022-11-14T08:32:00.077Z,34.99
2022-11-14T08:34:30.891Z,35.01
2022-11-14T08:37:01.013Z,35.03
2022-11-14T08:39:33.343Z,35.07
2022-11-14T08:42:04.217Z,35.08
2022-11-14T08:44:34.910Z,35.08
2022-11-14T08:47:05.884Z,35.07
2022-11-14T08:49:36.948Z,35.07
2022-11-14T08:52:09.313Z,35.06
2022-11-14T08:54:47.705Z,35.04
2022-11-14T08:57:18.315Z,35.02
2022-11-14T08:59:48.691Z,34.99
2022-11-14T09:02:19.231Z,34.97
2022-11-14T09:04:49.112Z,34.95
2022-11-14T09:07:19.843Z,34.92
2022-11-14T09:09:51.554Z,34.89
2022-11-14T09:12:22.080Z,34.85
2022-11-14T09:14:52.095Z,34.75
2022-11-14T09:17:23.075Z,34.67
2022-11-14T09:19:53.550Z,34.61
2022-11-14T09:22:24.461Z,34.55
2022-11-14T09:24:56.556Z,34.49
2022-11-14T09:27:29.601Z,34.45
2022-11-14T09:30:00.315Z,34.42
2022-11-14T09:32:31.063Z,34.39
2022-11-14T09:35:01.767Z,34.37
2022-11-14T09:37:32.691Z,34.34
2022-11-14T09:40:05.901Z,34.32
2022-11-14T09:43:02.999Z,34.30
2022-11-14T09:45:35.960Z,34.25
2022-11-14T09:48:15.644Z,34.20
2022-11-14T09:50:53.971Z,34.16
2022-11-14T09:53:33.668Z,34.14
2022-11-14T09:56:06.425Z,34.10
2022-11-14T09:58:36.571Z,34.05
2022-11-14T10:01:13.839Z,34.00
2022-11-14T10:04:01.066Z,33.93
2022-11-14T10:06:38.501Z,33.84
2022-11-14T10:09:51.576Z,33.75
2022-11-14T10:12:33.747Z,33.64
2022-11-14T10:15:33.845Z,33.52
2022-11-14T10:18:30.742Z,33.37
2022-11-14T10:21:13.304Z,33.24
2022-11-14T10:24:05.746Z,33.15
2022-11-14T10:26:48.325Z,33.06
2022-11-14T10:30:02.209Z,32.98
2022-11-14T10:33:03.398Z,32.94
2022-11-14T10:35:41.760Z,32.87
2022-11-14T10:38:21.607Z,32.84
2022-11-14T10:40:56.032Z,32.80
2022-11-14T10:43:35.263Z,32.77
2022-11-14T10:46:18.440Z,32.75
2022-11-14T10:48:55.088Z,32.73
2022-11-14T10:51:37.762Z,32.71
2022-11-14T10:54:16.641Z,32.67
2022-11-14T10:56:51.227Z,32.63
2022-11-14T10:59:22.228Z,32.59
2022-11-14T11:02:01.316Z,32.56
2022-11-14T11:04:33.330Z,32.47
2022-11-14T11:07:42.877Z,32.39
2022-11-14T11:10:42.440Z,32.29
2022-11-14T11:13:29.866Z,32.20
2022-11-14T11:16:03.501Z,32.14
2022-11-14T11:18:37.677Z,32.12
2022-11-14T11:21:12.685Z,32.10
2022-11-14T11:23:54.559Z,32.08
2022-11-14T11:26:29.360Z,32.03
2022-11-14T11:29:19.325Z,31.98
2022-11-14T11:31:56.072Z,31.91
2022-11-14T11:34:31.392Z,31.86
2022-11-14T11:37:12.731Z,31.81
2022-11-14T11:39:51.890Z,31.79
2022-11-14T11:43:06.254Z,31.75
2022-11-14T11:45:22.231Z,31.72
2022-11-14T11:48:00.388Z,31.72
2022-11-14T11:50:33.807Z,31.67
2022-11-14T11:53:21.041Z,31.64
2022-11-14T11:55:57.434Z,31.60
2022-11-14T11:58:35.816Z,31.56
2022-11-14T12:01:06.654Z,31.52
2022-11-14T12:03:38.740Z,31.51
2022-11-14T12:06:25.050Z,31.53
2022-11-14T12:09:12.978Z,31.55
2022-11-14T12:11:48.752Z,31.56
2022-11-14T12:15:00.546Z,31.57
2022-11-14T12:18:21.096Z,31.53
2022-11-14T12:21:12.903Z,31.49
2022-11-14T12:24:41.959Z,31.46
2022-11-14T12:27:37.599Z,31.38
2022-11-14T12:30:16.816Z,31.36
2022-11-14T12:32:55.615Z,31.33
2022-11-14T12:35:31.289Z,31.30
2022-11-14T12:38:05.360Z,31.28
2022-11-14T12:40:42.267Z,31.29
2022-11-14T12:43:37.913Z,31.29
2022-11-14T12:46:11.562Z,31.27
2022-11-14T12:48:44.825Z,31.28
2022-11-14T12:51:52.475Z,31.29
2022-11-14T12:54:49.585Z,31.26
2022-11-14T12:57:50.790Z,31.23
2022-11-14T13:00:21.913Z,31.21
2022-11-14T13:03:17.622Z,31.20
2022-11-14T13:06:03.900Z,31.19
2022-11-14T13:09:17.559Z,31.13
2022-11-14T13:12:06.668Z,31.08
2022-11-14T13:15:10.125Z,31.04
2022-11-14T13:17:59.364Z,31.01
2022-11-14T13:20:54.279Z,30.96
2022-11-14T13:24:00.428Z,30.94
2022-11-14T13:26:49.016Z,30.92
2022-11-14T13:30:03.168Z,30.88
2022-11-14T13:33:06.977Z,30.84
2022-11-14T13:36:04.877Z,30.80
2022-11-14T13:39:22.286Z,30.78
2022-11-14T13:42:29.011Z,30.74
2022-11-14T13:45:51.298Z,30.70
2022-11-14T13:48:49.582Z,30.68
2022-11-14T13:51:42.190Z,30.66
2022-11-14T13:54:18.713Z,30.67
2022-11-14T13:57:06.984Z,30.66
2022-11-14T14:00:03.816Z,30.64
2022-11-14T14:03:17.085Z,30.63
2022-11-14T14:06:13.955Z,30.65
2022-11-14T14:09:07.580Z,30.66
2022-11-14T14:12:04.404Z,30.63
2022-11-14T14:15:00.187Z,30.58
2022-11-14T14:17:46.564Z,30.54
2022-11-14T14:20:38.223Z,30.52
2022-11-14T14:23:30.580Z,30.52
2022-11-14T14:26:19.473Z,30.52
2022-11-14T14:29:06.404Z,30.53
2022-11-14T14:31:40.265Z,30.51
2022-11-14T14:34:26.644Z,30.47
2022-11-14T14:37:00.837Z,30.43
2022-11-14T14:39:32.540Z,30.41
2022-11-14T14:42:03.220Z,30.39
2022-11-14T14:44:41.366Z,30.40
2022-11-14T14:47:35.598Z,30.39
2022-11-14T14:50:10.689Z,30.38
2022-11-14T14:52:43.160Z,30.39
2022-11-14T14:55:27.171Z,30.37
2022-11-14T14:57:57.934Z,30.35
2022-11-14T15:00:30.288Z,30.37
2022-11-14T15:03:01.126Z,30.37
2022-11-14T15:05:34.064Z,30.37
2022-11-14T15:08:11.368Z,30.35
2022-11-14T15:10:46.200Z,30.33
2022-11-14T15:13:20.636Z,30.31
2022-11-14T15:15:57.484Z,30.31
2022-11-14T15:18:31.980Z,30.29
2022-11-14T15:21:27.663Z,30.28
2022-11-14T15:24:19.050Z,30.26
2022-11-14T15:26:52.293Z,30.25
2022-11-14T15:29:25.530Z,30.24
2022-11-14T15:32:00.119Z,30.23
2022-11-14T15:34:49.513Z,30.22
2022-11-14T15:37:26.286Z,30.22
2022-11-14T15:40:20.443Z,30.22
2022-11-14T15:42:51.112Z,30.21
2022-11-14T15:46:04.574Z,30.22
2022-11-14T15:48:35.429Z,30.21
2022-11-14T15:51:06.226Z,30.20
2022-11-14T15:53:36.212Z,30.19
2022-11-14T15:56:10.896Z,30.18
2022-11-14T15:58:45.363Z,30.16
2022-11-14T16:01:27.030Z,30.16
2022-11-14T16:03:59.640Z,30.15
2022-11-14T16:06:30.041Z,30.14
2022-11-14T16:09:01.939Z,30.13
2022-11-14T16:11:33.982Z,30.12
2022-11-14T16:14:04.893Z,30.10
2022-11-14T16:16:36.242Z,30.11
2022-11-14T16:19:08.338Z,30.12
2022-11-14T16:21:43.143Z,30.13
2022-11-14T16:24:19.765Z,30.13
2022-11-14T16:26:53.398Z,30.13
2022-11-14T16:29:24.260Z,30.11
2022-11-14T16:31:55.728Z,30.11
2022-11-14T16:34:30.987Z,30.09
2022-11-14T16:37:07.291Z,30.06
2022-11-14T16:39:40.606Z,30.03
2022-11-14T16:42:14.488Z,30.02
2022-11-14T16:44:50.523Z,30.03
2022-11-14T16:47:23.065Z,30.01
2022-11-14T16:49:54.779Z,30.00
2022-11-14T16:52:25.546Z,30.01
2022-11-14T16:54:57.395Z,30.02
2022-11-14T16:57:29.609Z,30.02
2022-11-14T17:00:01.543Z,30.02
2022-11-14T17:02:31.509Z,30.02
2022-11-14T17:05:01.944Z,30.02
2022-11-14T17:07:33.686Z,30.02
2022-11-14T17:10:05.334Z,30.00
2022-11-14T17:12:39.002Z,29.99
2022-11-14T17:15:13.104Z,29.97
2022-11-14T17:17:46.749Z,29.95
2022-11-14T17:20:17.455Z,29.94
2022-11-14T17:22:48.274Z,29.94
2022-11-14T17:25:18.774Z,29.93
2022-11-14T17:27:52.271Z,29.93
2022-11-14T17:30:24.449Z,29.92
2022-11-14T17:32:56.938Z,29.92
2022-11-14T17:35:26.942Z,29.88
2022-11-14T17:38:00.281Z,29.84
2022-11-14T17:40:32.093Z,29.83
2022-11-14T17:43:05.302Z,29.83
2022-11-14T17:45:41.437Z,29.84
2022-11-14T17:48:18.994Z,29.85
2022-11-14T17:50:49.833Z,29.83
2022-11-14T17:53:21.650Z,29.84
2022-11-14T17:55:59.145Z,29.83
2022-11-14T17:58:35.171Z,29.82
2022-11-14T18:01:13.700Z,29.83
2022-11-14T18:03:46.232Z,29.81
2022-11-14T18:06:20.958Z,29.83
2022-11-14T18:08:51.995Z,29.83
2022-11-14T18:11:22.585Z,29.84
2022-11-14T18:13:58.956Z,29.86
2022-11-14T18:16:50.526Z,29.85
2022-11-14T18:19:21.559Z,29.83
2022-11-14T18:21:53.867Z,29.84
2022-11-14T18:24:25.895Z,29.81
2022-11-14T18:26:57.042Z,29.81
2022-11-14T18:29:31.314Z,29.80
2022-11-14T18:32:04.961Z,29.79
2022-11-14T18:34:37.317Z,29.78
2022-11-14T18:37:08.831Z,29.78
2022-11-14T18:39:41.078Z,29.77
2022-11-14T18:42:11.940Z,29.76
2022-11-14T18:44:45.902Z,29.77
2022-11-14T18:47:19.688Z,29.76
2022-11-14T18:49:50.175Z,29.76
2022-11-14T18:52:21.052Z,29.75
2022-11-14T18:54:51.999Z,29.75
2022-11-14T18:57:26.251Z,29.74
2022-11-14T18:59:59.412Z,29.75
2022-11-14T19:02:43.343Z,29.73
2022-11-14T19:05:15.038Z,29.71
2022-11-14T19:07:47.207Z,29.71
2022-11-14T19:10:18.004Z,29.69
2022-11-14T19:12:54.466Z,29.71
2022-11-14T19:15:27.714Z,29.68
2022-11-14T19:18:00.520Z,29.67
2022-11-14T19:20:31.630Z,29.66
2022-11-14T19:23:06.278Z,29.66
2022-11-14T19:25:42.149Z,29.67
2022-11-14T19:28:13.154Z,29.65
2022-11-14T19:30:46.621Z,29.67
2022-11-14T19:33:18.079Z,29.65
2022-11-14T19:35:50.720Z,29.64
2022-11-14T19:38:22.486Z,29.63
2022-11-14T19:41:00.784Z,29.62
2022-11-14T19:43:35.245Z,29.61
2022-11-14T19:46:10.383Z,29.60
2022-11-14T19:48:44.264Z,29.60
2022-11-14T19:51:18.084Z,29.59
2022-11-14T19:53:50.744Z,29.58
2022-11-14T19:56:23.414Z,29.58
2022-11-14T19:58:57.178Z,29.57
2022-11-14T20:01:31.940Z,29.56
2022-11-14T20:04:04.732Z,29.56
2022-11-14T20:06:38.756Z,29.55
2022-11-14T20:09:12.657Z,29.54
2022-11-14T20:11:42.817Z,29.52
2022-11-14T20:14:15.231Z,29.52
2022-11-14T20:16:48.388Z,29.51
2022-11-14T20:19:23.373Z,29.50
2022-11-14T20:21:56.521Z,29.49
2022-11-14T20:24:29.078Z,29.48
2022-11-14T20:27:03.098Z,29.47
2022-11-14T20:29:39.378Z,29.47
2022-11-14T20:32:15.930Z,29.45
2022-11-14T20:34:47.970Z,29.43
2022-11-14T20:37:19.915Z,29.41
2022-11-14T20:39:53.007Z,29.40
2022-11-14T20:42:26.610Z,29.39
2022-11-14T20:44:56.903Z,29.37
2022-11-14T20:47:31.683Z,29.36
2022-11-14T20:50:02.692Z,29.35
2022-11-14T20:52:33.214Z,29.32
2022-11-14T20:55:08.920Z,29.31
2022-11-14T20:57:42.406Z,29.30
2022-11-14T21:00:14.949Z,29.30
2022-11-14T21:02:49.461Z,29.29
2022-11-14T21:05:19.767Z,29.27
2022-11-14T21:07:50.156Z,29.27
2022-11-14T21:10:38.257Z,29.27
2022-11-14T21:13:27.621Z,29.25
2022-11-14T21:15:59.875Z,29.24
2022-11-14T21:18:34.401Z,29.23
2022-11-14T21:21:08.282Z,29.23
2022-11-14T21:23:39.885Z,29.22
2022-11-14T21:26:12.564Z,29.21
2022-11-14T21:28:46.515Z,29.20
2022-11-14T21:31:20.991Z,29.19
2022-11-14T21:33:55.265Z,29.18
2022-11-14T21:39:17.458Z,29.14
2022-11-14T21:41:49.558Z,29.13
2022-11-14T21:44:21.990Z,29.12
2022-11-14T21:46:52.607Z,29.11
2022-11-14T21:49:25.074Z,29.11
2022-11-14T21:51:54.812Z,29.10
2022-11-14T21:54:24.732Z,29.10
2022-11-14T21:56:55.473Z,29.08
2022-11-14T21:59:28.220Z,29.07
2022-11-14T22:02:34.024Z,29.06
2022-11-14T22:05:05.924Z,29.01
2022-11-14T22:07:36.610Z,29.00
2022-11-14T22:10:10.777Z,28.99
2022-11-14T22:12:41.390Z,28.99
2022-11-14T22:15:12.253Z,28.98
2022-11-14T22:17:43.462Z,28.98
2022-11-14T22:20:17.746Z,28.97
2022-11-14T22:22:47.806Z,28.97
2022-11-14T22:25:18.587Z,28.96
2022-11-14T22:27:49.058Z,28.95
2022-11-14T22:30:20.155Z,28.93
2022-11-14T22:32:52.627Z,28.92
2022-11-14T22:35:25.536Z,28.91
2022-11-14T22:37:55.611Z,28.90
2022-11-14T22:40:25.801Z,28.89
2022-11-14T22:42:56.390Z,28.90
2022-11-14T22:45:27.499Z,28.90
2022-11-14T22:48:00.560Z,28.89
2022-11-14T22:50:32.962Z,28.87
2022-11-14T22:53:03.622Z,28.86
2022-11-14T22:55:34.285Z,28.86
2022-11-14T22:58:04.411Z,28.85
2022-11-14T23:00:34.187Z,28.85
2022-11-14T23:03:04.153Z,28.85
2022-11-14T23:05:42.250Z,28.84
2022-11-14T23:08:12.628Z,28.82
2022-11-14T23:10:44.371Z,28.83
2022-11-14T23:13:16.350Z,28.82
2022-11-14T23:15:50.870Z,28.81
2022-11-14T23:18:21.681Z,28.80
2022-11-14T23:20:54.379Z,28.79
2022-11-14T23:23:24.693Z,28.78
2022-11-14T23:25:56.444Z,28.78
2022-11-14T23:28:26.924Z,28.78
2022-11-14T23:30:59.971Z,28.79
2022-11-14T23:33:30.624Z,28.79
2022-11-14T23:36:03.559Z,28.79
2022-11-14T23:38:33.647Z,28.79
2022-11-14T23:41:04.963Z,28.80
2022-11-14T23:43:35.623Z,28.79
2022-11-14T23:46:06.016Z,28.80
2022-11-14T23:48:36.570Z,28.79
2022-11-14T23:51:09.956Z,28.77
2022-11-14T23:53:40.616Z,28.74
2022-11-14T23:56:15.370Z,28.74
2022-11-14T23:58:45.866Z,28.73
